sensor_id;sensor_type;location;lat;lon;timestamp;P1;durP1;ratioP1;P2;durP2;ratioP2
67544;SDS011;54380;47.770;11.150;2023-04-03T00:01:17;9.23;;;2.65;;
67544;SDS011;54380;47.770;11.150;2023-04-03T00:03:44;10.07;;;2.72;;
67544;SDS011;54380;47.770;11.150;2023-04-03T00:06:11;10.75;;;2.75;;
67544;SDS011;54380;47.770;11.150;2023-04-03T00:08:48;10.57;;;2.85;;
67544;SDS011;54380;47.770;11.150;2023-04-03T00:11:16;8.80;;;2.42;;
67544;SDS011;54380;47.770;11.150;2023-04-03T00:13:44;9.70;;;2.88;;
67544;SDS011;54380;47.770;11.150;2023-04-03T00:16:13;10.60;;;3.45;;
67544;SDS011;54380;47.770;11.150;2023-04-03T00:18:40;10.20;;;2.70;;
67544;SDS011;54380;47.770;11.150;2023-04-03T00:21:09;11.20;;;3.47;;
67544;SDS011;54380;47.770;11.150;2023-04-03T00:23:38;12.10;;;3.42;;
67544;SDS011;54380;47.770;11.150;2023-04-03T00:26:05;10.43;;;3.10;;
67544;SDS011;54380;47.770;11.150;2023-04-03T00:28:32;10.40;;;2.67;;
67544;SDS011;54380;47.770;11.150;2023-04-03T00:30:59;9.38;;;2.78;;
67544;SDS011;54380;47.770;11.150;2023-04-03T00:33:29;10.75;;;2.65;;
67544;SDS011;54380;47.770;11.150;2023-04-03T00:35:56;10.55;;;3.35;;
67544;SDS011;54380;47.770;11.150;2023-04-03T00:38:23;8.85;;;2.60;;
67544;SDS011;54380;47.770;11.150;2023-04-03T00:40:51;11.23;;;3.30;;
67544;SDS011;54380;47.770;11.150;2023-04-03T00:43:18;9.98;;;2.70;;
67544;SDS011;54380;47.770;11.150;2023-04-03T00:45:47;10.02;;;2.88;;
67544;SDS011;54380;47.770;11.150;2023-04-03T00:48:16;11.63;;;3.35;;
67544;SDS011;54380;47.770;11.150;2023-04-03T00:50:50;11.20;;;2.78;;
67544;SDS011;54380;47.770;11.150;2023-04-03T00:53:19;9.80;;;2.92;;
67544;SDS011;54380;47.770;11.150;2023-04-03T00:55:50;9.85;;;2.75;;
67544;SDS011;54380;47.770;11.150;2023-04-03T01:00:48;11.05;;;3.28;;
67544;SDS011;54380;47.770;11.150;2023-04-03T01:03:23;10.93;;;2.13;;
67544;SDS011;54380;47.770;11.150;2023-04-03T01:05:51;10.57;;;3.17;;
67544;SDS011;54380;47.770;11.150;2023-04-03T01:08:19;9.07;;;2.55;;
67544;SDS011;54380;47.770;11.150;2023-04-03T01:10:48;9.57;;;2.38;;
67544;SDS011;54380;47.770;11.150;2023-04-03T01:13:19;11.70;;;3.47;;
67544;SDS011;54380;47.770;11.150;2023-04-03T01:15:49;9.90;;;3.13;;
67544;SDS011;54380;47.770;11.150;2023-04-03T01:18:16;10.52;;;3.10;;
67544;SDS011;54380;47.770;11.150;2023-04-03T01:24:11;12.02;;;3.42;;
67544;SDS011;54380;47.770;11.150;2023-04-03T01:26:48;9.90;;;3.13;;
67544;SDS011;54380;47.770;11.150;2023-04-03T01:29:16;9.52;;;2.15;;
67544;SDS011;54380;47.770;11.150;2023-04-03T01:31:47;8.95;;;1.70;;
67544;SDS011;54380;47.770;11.150;2023-04-03T01:34:16;10.70;;;2.70;;
67544;SDS011;54380;47.770;11.150;2023-04-03T01:36:43;10.30;;;2.45;;
67544;SDS011;54380;47.770;11.150;2023-04-03T01:39:10;10.25;;;2.78;;
67544;SDS011;54380;47.770;11.150;2023-04-03T01:41:38;10.77;;;2.80;;
67544;SDS011;54380;47.770;11.150;2023-04-03T01:44:13;10.35;;;3.13;;
67544;SDS011;54380;47.770;11.150;2023-04-03T01:46:40;9.75;;;3.05;;
67544;SDS011;54380;47.770;11.150;2023-04-03T01:49:10;9.15;;;2.55;;
67544;SDS011;54380;47.770;11.150;2023-04-03T01:51:37;10.50;;;2.65;;
67544;SDS011;54380;47.770;11.150;2023-04-03T01:54:04;10.10;;;2.92;;
67544;SDS011;54380;47.770;11.150;2023-04-03T01:56:31;12.18;;;2.85;;
67544;SDS011;54380;47.770;11.150;2023-04-03T01:58:58;10.05;;;2.70;;
67544;SDS011;54380;47.770;11.150;2023-04-03T02:01:25;9.50;;;2.85;;
67544;SDS011;54380;47.770;11.150;2023-04-03T02:03:52;8.88;;;2.33;;
67544;SDS011;54380;47.770;11.150;2023-04-03T02:06:20;10.40;;;2.53;;
67544;SDS011;54380;47.770;11.150;2023-04-03T02:08:47;10.45;;;2.88;;
67544;SDS011;54380;47.770;11.150;2023-04-03T02:11:14;9.63;;;2.60;;
67544;SDS011;54380;47.770;11.150;2023-04-03T02:13:41;9.10;;;2.50;;
67544;SDS011;54380;47.770;11.150;2023-04-03T02:16:08;9.75;;;2.55;;
67544;SDS011;54380;47.770;11.150;2023-04-03T02:18:36;9.85;;;2.72;;
67544;SDS011;54380;47.770;11.150;2023-04-03T02:21:04;10.77;;;2.95;;
67544;SDS011;54380;47.770;11.150;2023-04-03T02:23:34;9.75;;;2.35;;
67544;SDS011;54380;47.770;11.150;2023-04-03T02:26:07;9.63;;;2.55;;
67544;SDS011;54380;47.770;11.150;2023-04-03T02:28:35;10.30;;;2.58;;
67544;SDS011;54380;47.770;11.150;2023-04-03T02:31:02;12.23;;;3.22;;
67544;SDS011;54380;47.770;11.150;2023-04-03T02:33:30;12.13;;;3.15;;
67544;SDS011;54380;47.770;11.150;2023-04-03T02:35:57;8.82;;;2.35;;
67544;SDS011;54380;47.770;11.150;2023-04-03T02:38:25;10.23;;;2.63;;
67544;SDS011;54380;47.770;11.150;2023-04-03T02:40:57;9.45;;;2.72;;
67544;SDS011;54380;47.770;11.150;2023-04-03T02:43:26;10.48;;;3.00;;
67544;SDS011;54380;47.770;11.150;2023-04-03T02:45:53;8.38;;;2.35;;
67544;SDS011;54380;47.770;11.150;2023-04-03T02:48:20;10.02;;;2.65;;
67544;SDS011;54380;47.770;11.150;2023-04-03T02:50:48;9.57;;;2.78;;
67544;SDS011;54380;47.770;11.150;2023-04-03T02:53:15;9.93;;;2.55;;
67544;SDS011;54380;47.770;11.150;2023-04-03T02:55:43;10.77;;;3.35;;
67544;SDS011;54380;47.770;11.150;2023-04-03T02:58:12;10.45;;;2.90;;
67544;SDS011;54380;47.770;11.150;2023-04-03T03:00:41;11.55;;;2.38;;
67544;SDS011;54380;47.770;11.150;2023-04-03T03:03:08;9.02;;;2.35;;
67544;SDS011;54380;47.770;11.150;2023-04-03T03:05:35;11.25;;;2.70;;
67544;SDS011;54380;47.770;11.150;2023-04-03T03:08:02;10.85;;;3.00;;
67544;SDS011;54380;47.770;11.150;2023-04-03T03:10:29;11.88;;;3.00;;
67544;SDS011;54380;47.770;11.150;2023-04-03T03:12:56;9.38;;;2.60;;
67544;SDS011;54380;47.770;11.150;2023-04-03T03:15:24;11.30;;;3.15;;
67544;SDS011;54380;47.770;11.150;2023-04-03T03:17:51;10.18;;;2.70;;
67544;SDS011;54380;47.770;11.150;2023-04-03T03:20:19;9.88;;;2.78;;
67544;SDS011;54380;47.770;11.150;2023-04-03T03:22:46;13.02;;;2.45;;
67544;SDS011;54380;47.770;11.150;2023-04-03T03:25:13;9.55;;;2.67;;
67544;SDS011;54380;47.770;11.150;2023-04-03T03:27:40;11.30;;;2.78;;
67544;SDS011;54380;47.770;11.150;2023-04-03T03:30:07;10.50;;;3.05;;
67544;SDS011;54380;47.770;11.150;2023-04-03T03:32:35;10.35;;;2.92;;
67544;SDS011;54380;47.770;11.150;2023-04-03T03:35:02;10.90;;;2.83;;
67544;SDS011;54380;47.770;11.150;2023-04-03T03:37:29;10.68;;;2.78;;
67544;SDS011;54380;47.770;11.150;2023-04-03T03:39:56;10.65;;;3.00;;
67544;SDS011;54380;47.770;11.150;2023-04-03T03:42:23;9.77;;;2.70;;
67544;SDS011;54380;47.770;11.150;2023-04-03T03:44:50;8.95;;;2.35;;
67544;SDS011;54380;47.770;11.150;2023-04-03T03:47:18;9.85;;;3.00;;
67544;SDS011;54380;47.770;11.150;2023-04-03T03:49:46;10.77;;;2.83;;
67544;SDS011;54380;47.770;11.150;2023-04-03T03:52:14;11.02;;;3.03;;
67544;SDS011;54380;47.770;11.150;2023-04-03T03:54:42;9.93;;;2.50;;
67544;SDS011;54380;47.770;11.150;2023-04-03T03:57:09;8.68;;;1.33;;
67544;SDS011;54380;47.770;11.150;2023-04-03T03:59:35;9.80;;;2.70;;
67544;SDS011;54380;47.770;11.150;2023-04-03T04:02:03;8.73;;;2.58;;
67544;SDS011;54380;47.770;11.150;2023-04-03T04:04:31;11.75;;;2.50;;
67544;SDS011;54380;47.770;11.150;2023-04-03T04:07:00;8.57;;;1.90;;
67544;SDS011;54380;47.770;11.150;2023-04-03T04:09:27;9.50;;;2.25;;
67544;SDS011;54380;47.770;11.150;2023-04-03T04:11:53;10.18;;;2.17;;
67544;SDS011;54380;47.770;11.150;2023-04-03T04:14:21;9.80;;;2.95;;
67544;SDS011;54380;47.770;11.150;2023-04-03T04:16:48;9.63;;;2.80;;
67544;SDS011;54380;47.770;11.150;2023-04-03T04:19:20;7.80;;;1.50;;
67544;SDS011;54380;47.770;11.150;2023-04-03T04:21:48;10.02;;;2.75;;
67544;SDS011;54380;47.770;11.150;2023-04-03T04:24:18;9.35;;;2.63;;
67544;SDS011;54380;47.770;11.150;2023-04-03T04:26:46;8.82;;;2.25;;
67544;SDS011;54380;47.770;11.150;2023-04-03T04:29:15;9.55;;;2.08;;
67544;SDS011;54380;47.770;11.150;2023-04-03T04:31:45;8.00;;;1.90;;
67544;SDS011;54380;47.770;11.150;2023-04-03T04:34:12;8.57;;;2.22;;
67544;SDS011;54380;47.770;11.150;2023-04-03T04:36:39;9.27;;;2.47;;
67544;SDS011;54380;47.770;11.150;2023-04-03T04:39:07;9.60;;;2.83;;
67544;SDS011;54380;47.770;11.150;2023-04-03T04:41:35;8.38;;;1.90;;
67544;SDS011;54380;47.770;11.150;2023-04-03T04:46:31;9.43;;;2.28;;
67544;SDS011;54380;47.770;11.150;2023-04-03T04:48:58;9.75;;;2.72;;
67544;SDS011;54380;47.770;11.150;2023-04-03T04:51:28;11.10;;;2.92;;
67544;SDS011;54380;47.770;11.150;2023-04-03T04:54:03;8.25;;;2.22;;
67544;SDS011;54380;47.770;11.150;2023-04-03T04:56:31;10.15;;;2.58;;
67544;SDS011;54380;47.770;11.150;2023-04-03T04:59:00;10.32;;;2.25;;
67544;SDS011;54380;47.770;11.150;2023-04-03T05:01:27;9.70;;;2.17;;
67544;SDS011;54380;47.770;11.150;2023-04-03T05:04:02;10.25;;;3.15;;
67544;SDS011;54380;47.770;11.150;2023-04-03T05:06:28;9.95;;;2.50;;
67544;SDS011;54380;47.770;11.150;2023-04-03T05:08:59;7.05;;;1.30;;
67544;SDS011;54380;47.770;11.150;2023-04-03T05:11:28;9.20;;;3.00;;
67544;SDS011;54380;47.770;11.150;2023-04-03T05:13:55;9.48;;;2.88;;
67544;SDS011;54380;47.770;11.150;2023-04-03T05:16:24;11.43;;;3.25;;
67544;SDS011;54380;47.770;11.150;2023-04-03T05:18:52;10.15;;;3.35;;
67544;SDS011;54380;47.770;11.150;2023-04-03T05:21:21;9.65;;;2.90;;
67544;SDS011;54380;47.770;11.150;2023-04-03T05:23:50;11.00;;;2.20;;
67544;SDS011;54380;47.770;11.150;2023-04-03T05:26:18;11.48;;;3.38;;
67544;SDS011;54380;47.770;11.150;2023-04-03T05:28:46;12.48;;;2.65;;
67544;SDS011;54380;47.770;11.150;2023-04-03T05:31:14;10.57;;;3.40;;
67544;SDS011;54380;47.770;11.150;2023-04-03T05:33:42;10.40;;;3.05;;
67544;SDS011;54380;47.770;11.150;2023-04-03T05:36:15;10.70;;;2.47;;
67544;SDS011;54380;47.770;11.150;2023-04-03T05:41:12;9.95;;;2.63;;
67544;SDS011;54380;47.770;11.150;2023-04-03T05:43:39;14.10;;;4.43;;
67544;SDS011;54380;47.770;11.150;2023-04-03T05:46:09;12.70;;;3.35;;
67544;SDS011;54380;47.770;11.150;2023-04-03T05:48:38;13.27;;;3.67;;
67544;SDS011;54380;47.770;11.150;2023-04-03T05:51:07;12.63;;;3.58;;
67544;SDS011;54380;47.770;11.150;2023-04-03T05:53:39;13.32;;;3.47;;
67544;SDS011;54380;47.770;11.150;2023-04-03T05:56:07;10.05;;;3.25;;
67544;SDS011;54380;47.770;11.150;2023-04-03T05:58:38;12.07;;;3.88;;
67544;SDS011;54380;47.770;11.150;2023-04-03T06:01:05;33.60;;;18.70;;
67544;SDS011;54380;47.770;11.150;2023-04-03T06:03:32;22.23;;;9.00;;
67544;SDS011;54380;47.770;11.150;2023-04-03T06:06:03;10.45;;;3.20;;
67544;SDS011;54380;47.770;11.150;2023-04-03T06:08:32;14.57;;;4.72;;
67544;SDS011;54380;47.770;11.150;2023-04-03T06:11:01;14.85;;;4.25;;
67544;SDS011;54380;47.770;11.150;2023-04-03T06:13:28;13.82;;;4.25;;
67544;SDS011;54380;47.770;11.150;2023-04-03T06:15:55;11.70;;;3.60;;
67544;SDS011;54380;47.770;11.150;2023-04-03T06:18:23;11.60;;;3.20;;
67544;SDS011;54380;47.770;11.150;2023-04-03T06:20:50;11.48;;;3.80;;
67544;SDS011;54380;47.770;11.150;2023-04-03T06:23:18;12.40;;;3.72;;
67544;SDS011;54380;47.770;11.150;2023-04-03T06:25:46;10.82;;;3.42;;
67544;SDS011;54380;47.770;11.150;2023-04-03T06:28:13;10.98;;;3.55;;
67544;SDS011;54380;47.770;11.150;2023-04-03T06:30:40;13.15;;;3.45;;
67544;SDS011;54380;47.770;11.150;2023-04-03T06:33:07;13.35;;;4.00;;
67544;SDS011;54380;47.770;11.150;2023-04-03T06:35:34;10.15;;;3.05;;
67544;SDS011;54380;47.770;11.150;2023-04-03T06:38:01;11.57;;;3.67;;
67544;SDS011;54380;47.770;11.150;2023-04-03T06:40:34;11.65;;;4.22;;
67544;SDS011;54380;47.770;11.150;2023-04-03T06:43:02;10.95;;;3.20;;
67544;SDS011;54380;47.770;11.150;2023-04-03T06:45:29;13.95;;;3.50;;
67544;SDS011;54380;47.770;11.150;2023-04-03T06:47:56;13.27;;;2.55;;
67544;SDS011;54380;47.770;11.150;2023-04-03T06:50:23;10.50;;;3.50;;
67544;SDS011;54380;47.770;11.150;2023-04-03T06:52:50;11.43;;;3.67;;
67544;SDS011;54380;47.770;11.150;2023-04-03T06:55:17;10.27;;;2.30;;
67544;SDS011;54380;47.770;11.150;2023-04-03T06:57:44;10.00;;;2.50;;
67544;SDS011;54380;47.770;11.150;2023-04-03T07:00:15;11.10;;;3.20;;
67544;SDS011;54380;47.770;11.150;2023-04-03T07:02:42;10.50;;;3.40;;
67544;SDS011;54380;47.770;11.150;2023-04-03T07:05:09;10.77;;;3.15;;
67544;SDS011;54380;47.770;11.150;2023-04-03T07:07:36;10.35;;;3.08;;
67544;SDS011;54380;47.770;11.150;2023-04-03T07:10:04;10.10;;;2.88;;
67544;SDS011;54380;47.770;11.150;2023-04-03T07:12:32;9.07;;;2.05;;
67544;SDS011;54380;47.770;11.150;2023-04-03T07:14:59;11.55;;;3.67;;
67544;SDS011;54380;47.770;11.150;2023-04-03T07:17:27;11.02;;;3.35;;
67544;SDS011;54380;47.770;11.150;2023-04-03T07:19:54;9.80;;;2.67;;
67544;SDS011;54380;47.770;11.150;2023-04-03T07:22:21;11.23;;;3.42;;
67544;SDS011;54380;47.770;11.150;2023-04-03T07:24:48;9.27;;;2.67;;
67544;SDS011;54380;47.770;11.150;2023-04-03T07:27:15;12.30;;;3.90;;
67544;SDS011;54380;47.770;11.150;2023-04-03T07:29:41;10.23;;;3.25;;
67544;SDS011;54380;47.770;11.150;2023-04-03T07:32:09;11.25;;;3.40;;
67544;SDS011;54380;47.770;11.150;2023-04-03T07:34:37;10.70;;;3.50;;
67544;SDS011;54380;47.770;11.150;2023-04-03T07:37:04;10.27;;;3.40;;
67544;SDS011;54380;47.770;11.150;2023-04-03T07:39:32;10.77;;;3.20;;
67544;SDS011;54380;47.770;11.150;2023-04-03T07:41:59;10.75;;;3.05;;
67544;SDS011;54380;47.770;11.150;2023-04-03T07:44:26;10.27;;;3.13;;
67544;SDS011;54380;47.770;11.150;2023-04-03T07:46:54;10.45;;;3.08;;
67544;SDS011;54380;47.770;11.150;2023-04-03T07:49:24;8.30;;;2.35;;
67544;SDS011;54380;47.770;11.150;2023-04-03T07:51:52;11.85;;;3.83;;
67544;SDS011;54380;47.770;11.150;2023-04-03T07:54:19;11.40;;;3.47;;
67544;SDS011;54380;47.770;11.150;2023-04-03T07:56:46;9.57;;;2.08;;
67544;SDS011;54380;47.770;11.150;2023-04-03T07:59:13;11.82;;;3.88;;
67544;SDS011;54380;47.770;11.150;2023-04-03T08:01:40;11.07;;;3.08;;
67544;SDS011;54380;47.770;11.150;2023-04-03T08:04:07;9.38;;;2.28;;
67544;SDS011;54380;47.770;11.150;2023-04-03T08:06:33;10.73;;;3.15;;
67544;SDS011;54380;47.770;11.150;2023-04-03T08:09:13;9.52;;;2.65;;
67544;SDS011;54380;47.770;11.150;2023-04-03T08:11:41;10.52;;;2.75;;
67544;SDS011;54380;47.770;11.150;2023-04-03T08:14:08;10.93;;;2.60;;
67544;SDS011;54380;47.770;11.150;2023-04-03T08:16:42;10.40;;;2.72;;
67544;SDS011;54380;47.770;11.150;2023-04-03T08:19:09;9.65;;;2.42;;
67544;SDS011;54380;47.770;11.150;2023-04-03T08:21:51;10.40;;;2.88;;
67544;SDS011;54380;47.770;11.150;2023-04-03T08:24:19;10.63;;;2.67;;
67544;SDS011;54380;47.770;11.150;2023-04-03T08:26:46;8.95;;;2.33;;
67544;SDS011;54380;47.770;11.150;2023-04-03T08:29:13;9.00;;;2.58;;
67544;SDS011;54380;47.770;11.150;2023-04-03T08:31:40;7.72;;;2.00;;
67544;SDS011;54380;47.770;11.150;2023-04-03T08:34:07;8.68;;;2.80;;
67544;SDS011;54380;47.770;11.150;2023-04-03T08:36:35;8.25;;;1.33;;
67544;SDS011;54380;47.770;11.150;2023-04-03T08:39:02;8.18;;;2.08;;
67544;SDS011;54380;47.770;11.150;2023-04-03T08:41:33;13.05;;;3.08;;
67544;SDS011;54380;47.770;11.150;2023-04-03T08:44:09;10.10;;;2.42;;
67544;SDS011;54380;47.770;11.150;2023-04-03T08:46:46;10.55;;;2.75;;
67544;SDS011;54380;47.770;11.150;2023-04-03T08:49:24;8.82;;;1.90;;
67544;SDS011;54380;47.770;11.150;2023-04-03T08:51:55;9.18;;;2.30;;
67544;SDS011;54380;47.770;11.150;2023-04-03T08:54:25;7.97;;;2.00;;
67544;SDS011;54380;47.770;11.150;2023-04-03T08:57:00;7.38;;;2.10;;
67544;SDS011;54380;47.770;11.150;2023-04-03T08:59:32;7.28;;;1.70;;
67544;SDS011;54380;47.770;11.150;2023-04-03T09:02:02;8.52;;;2.17;;
67544;SDS011;54380;47.770;11.150;2023-04-03T09:04:43;7.50;;;1.80;;
67544;SDS011;54380;47.770;11.150;2023-04-03T09:07:13;8.30;;;1.60;;
67544;SDS011;54380;47.770;11.150;2023-04-03T09:10:00;7.43;;;1.38;;
67544;SDS011;54380;47.770;11.150;2023-04-03T09:12:34;5.85;;;1.10;;
67544;SDS011;54380;47.770;11.150;2023-04-03T09:15:19;6.63;;;1.48;;
67544;SDS011;54380;47.770;11.150;2023-04-03T09:18:03;5.55;;;1.38;;
67544;SDS011;54380;47.770;11.150;2023-04-03T09:20:39;7.68;;;1.65;;
67544;SDS011;54380;47.770;11.150;2023-04-03T09:23:20;11.10;;;1.88;;
67544;SDS011;54380;47.770;11.150;2023-04-03T09:26:05;8.48;;;1.88;;
67544;SDS011;54380;47.770;11.150;2023-04-03T09:28:39;7.43;;;1.92;;
67544;SDS011;54380;47.770;11.150;2023-04-03T09:31:18;7.75;;;1.80;;
67544;SDS011;54380;47.770;11.150;2023-04-03T09:33:48;7.78;;;1.75;;
67544;SDS011;54380;47.770;11.150;2023-04-03T09:39:25;7.82;;;1.80;;
67544;SDS011;54380;47.770;11.150;2023-04-03T09:42:14;5.55;;;1.33;;
67544;SDS011;54380;47.770;11.150;2023-04-03T10:00:44;6.45;;;1.60;;
67544;SDS011;54380;47.770;11.150;2023-04-03T10:03:23;6.45;;;1.30;;
67544;SDS011;54380;47.770;11.150;2023-04-03T10:13:03;8.93;;;1.67;;
67544;SDS011;54380;47.770;11.150;2023-04-03T10:15:31;8.23;;;1.52;;
67544;SDS011;54380;47.770;11.150;2023-04-03T10:18:07;6.78;;;1.55;;
67544;SDS011;54380;47.770;11.150;2023-04-03T10:20:50;6.50;;;1.83;;
67544;SDS011;54380;47.770;11.150;2023-04-03T10:23:21;7.88;;;1.67;;
67544;SDS011;54380;47.770;11.150;2023-04-03T10:25:58;4.72;;;0.82;;
67544;SDS011;54380;47.770;11.150;2023-04-03T10:28:39;7.72;;;1.52;;
67544;SDS011;54380;47.770;11.150;2023-04-03T10:31:12;8.25;;;1.55;;
67544;SDS011;54380;47.770;11.150;2023-04-03T10:33:53;7.07;;;1.50;;
67544;SDS011;54380;47.770;11.150;2023-04-03T10:36:33;7.05;;;1.65;;
67544;SDS011;54380;47.770;11.150;2023-04-03T10:39:08;6.47;;;1.30;;
67544;SDS011;54380;47.770;11.150;2023-04-03T10:41:45;7.57;;;1.77;;
67544;SDS011;54380;47.770;11.150;2023-04-03T10:44:28;7.72;;;1.85;;
67544;SDS011;54380;47.770;11.150;2023-04-03T10:47:02;7.40;;;1.77;;
67544;SDS011;54380;47.770;11.150;2023-04-03T10:49:41;6.78;;;1.35;;
67544;SDS011;54380;47.770;11.150;2023-04-03T10:52:27;8.68;;;1.50;;
67544;SDS011;54380;47.770;11.150;2023-04-03T10:55:09;5.95;;;1.38;;
67544;SDS011;54380;47.770;11.150;2023-04-03T10:57:48;6.78;;;1.60;;
67544;SDS011;54380;47.770;11.150;2023-04-03T11:00:17;10.10;;;1.98;;
67544;SDS011;54380;47.770;11.150;2023-04-03T11:02:48;7.25;;;1.40;;
67544;SDS011;54380;47.770;11.150;2023-04-03T11:05:25;7.53;;;1.73;;
67544;SDS011;54380;47.770;11.150;2023-04-03T11:07:59;6.13;;;1.33;;
67544;SDS011;54380;47.770;11.150;2023-04-03T11:10:31;6.95;;;1.65;;
67544;SDS011;54380;47.770;11.150;2023-04-03T11:13:06;8.75;;;1.55;;
67544;SDS011;54380;47.770;11.150;2023-04-03T11:15:38;6.50;;;1.85;;
67544;SDS011;54380;47.770;11.150;2023-04-03T11:18:09;6.47;;;1.60;;
67544;SDS011;54380;47.770;11.150;2023-04-03T11:20:42;6.75;;;1.42;;
67544;SDS011;54380;47.770;11.150;2023-04-03T11:23:25;5.10;;;1.15;;
67544;SDS011;54380;47.770;11.150;2023-04-03T11:25:59;7.10;;;1.55;;
67544;SDS011;54380;47.770;11.150;2023-04-03T11:28:35;8.27;;;1.67;;
67544;SDS011;54380;47.770;11.150;2023-04-03T11:31:07;6.43;;;1.33;;
67544;SDS011;54380;47.770;11.150;2023-04-03T11:33:44;5.88;;;1.83;;
67544;SDS011;54380;47.770;11.150;2023-04-03T11:36:21;6.88;;;1.50;;
67544;SDS011;54380;47.770;11.150;2023-04-03T11:39:00;8.02;;;1.50;;
67544;SDS011;54380;47.770;11.150;2023-04-03T11:41:33;4.30;;;1.20;;
67544;SDS011;54380;47.770;11.150;2023-04-03T11:44:02;7.97;;;1.50;;
67544;SDS011;54380;47.770;11.150;2023-04-03T11:46:49;5.72;;;0.90;;
67544;SDS011;54380;47.770;11.150;2023-04-03T11:55:51;6.55;;;1.33;;
67544;SDS011;54380;47.770;11.150;2023-04-03T11:58:25;6.65;;;1.60;;
67544;SDS011;54380;47.770;11.150;2023-04-03T12:00:55;7.95;;;1.95;;
67544;SDS011;54380;47.770;11.150;2023-04-03T12:08:59;7.10;;;1.40;;
67544;SDS011;54380;47.770;11.150;2023-04-03T12:11:26;6.38;;;1.42;;
67544;SDS011;54380;47.770;11.150;2023-04-03T12:14:03;6.25;;;1.33;;
67544;SDS011;54380;47.770;11.150;2023-04-03T12:16:32;5.18;;;1.10;;
67544;SDS011;54380;47.770;11.150;2023-04-03T12:22:12;8.80;;;1.55;;
67544;SDS011;54380;47.770;11.150;2023-04-03T12:24:44;7.72;;;1.50;;
67544;SDS011;54380;47.770;11.150;2023-04-03T12:27:18;7.20;;;1.85;;
67544;SDS011;54380;47.770;11.150;2023-04-03T12:29:50;9.80;;;2.25;;
67544;SDS011;54380;47.770;11.150;2023-04-03T12:32:41;7.45;;;1.85;;
67544;SDS011;54380;47.770;11.150;2023-04-03T12:35:23;6.93;;;1.65;;
67544;SDS011;54380;47.770;11.150;2023-04-03T12:38:13;4.53;;;1.13;;
67544;SDS011;54380;47.770;11.150;2023-04-03T12:40:49;5.97;;;1.42;;
67544;SDS011;54380;47.770;11.150;2023-04-03T12:43:27;8.55;;;1.85;;
67544;SDS011;54380;47.770;11.150;2023-04-03T12:46:09;6.57;;;1.40;;
67544;SDS011;54380;47.770;11.150;2023-04-03T12:48:50;8.45;;;2.25;;
67544;SDS011;54380;47.770;11.150;2023-04-03T12:51:22;6.32;;;1.50;;
67544;SDS011;54380;47.770;11.150;2023-04-03T12:53:57;5.97;;;1.30;;
67544;SDS011;54380;47.770;11.150;2023-04-03T12:56:31;5.93;;;1.00;;
67544;SDS011;54380;47.770;11.150;2023-04-03T12:59:13;7.50;;;1.60;;
67544;SDS011;54380;47.770;11.150;2023-04-03T13:01:44;5.85;;;0.88;;
67544;SDS011;54380;47.770;11.150;2023-04-03T13:04:19;7.43;;;2.10;;
67544;SDS011;54380;47.770;11.150;2023-04-03T13:06:45;8.48;;;1.98;;
67544;SDS011;54380;47.770;11.150;2023-04-03T13:09:18;7.75;;;1.73;;
67544;SDS011;54380;47.770;11.150;2023-04-03T13:11:50;6.22;;;1.40;;
67544;SDS011;54380;47.770;11.150;2023-04-03T13:14:23;7.22;;;1.75;;
67544;SDS011;54380;47.770;11.150;2023-04-03T13:16:55;8.55;;;2.42;;
67544;SDS011;54380;47.770;11.150;2023-04-03T13:19:23;9.13;;;1.67;;
67544;SDS011;54380;47.770;11.150;2023-04-03T13:21:54;5.60;;;0.77;;
67544;SDS011;54380;47.770;11.150;2023-04-03T13:24:25;7.80;;;2.13;;
67544;SDS011;54380;47.770;11.150;2023-04-03T13:26:55;6.72;;;1.58;;
67544;SDS011;54380;47.770;11.150;2023-04-03T13:29:24;7.90;;;1.58;;
67544;SDS011;54380;47.770;11.150;2023-04-03T13:31:57;7.53;;;1.75;;
67544;SDS011;54380;47.770;11.150;2023-04-03T13:34:26;5.82;;;1.25;;
67544;SDS011;54380;47.770;11.150;2023-04-03T13:36:55;7.35;;;1.92;;
67544;SDS011;54380;47.770;11.150;2023-04-03T13:39:24;7.43;;;1.65;;
67544;SDS011;54380;47.770;11.150;2023-04-03T13:41:53;7.50;;;2.05;;
67544;SDS011;54380;47.770;11.150;2023-04-03T13:44:27;5.43;;;1.10;;
67544;SDS011;54380;47.770;11.150;2023-04-03T13:46:57;9.18;;;1.23;;
67544;SDS011;54380;47.770;11.150;2023-04-03T13:49:29;7.00;;;1.40;;
67544;SDS011;54380;47.770;11.150;2023-04-03T13:51:59;7.88;;;2.13;;
67544;SDS011;54380;47.770;11.150;2023-04-03T13:54:34;7.60;;;1.90;;
67544;SDS011;54380;47.770;11.150;2023-04-03T13:57:03;7.25;;;1.60;;
67544;SDS011;54380;47.770;11.150;2023-04-03T13:59:39;6.75;;;1.40;;
67544;SDS011;54380;47.770;11.150;2023-04-03T14:02:12;7.90;;;1.92;;
67544;SDS011;54380;47.770;11.150;2023-04-03T14:04:50;8.45;;;1.35;;
67544;SDS011;54380;47.770;11.150;2023-04-03T14:07:22;8.40;;;2.42;;
67544;SDS011;54380;47.770;11.150;2023-04-03T14:09:50;7.32;;;1.67;;
67544;SDS011;54380;47.770;11.150;2023-04-03T14:12:18;8.10;;;1.50;;
67544;SDS011;54380;47.770;11.150;2023-04-03T14:15:00;10.75;;;2.00;;
67544;SDS011;54380;47.770;11.150;2023-04-03T14:17:29;8.07;;;1.58;;
67544;SDS011;54380;47.770;11.150;2023-04-03T14:19:57;8.05;;;1.67;;
67544;SDS011;54380;47.770;11.150;2023-04-03T14:22:25;7.43;;;1.15;;
67544;SDS011;54380;47.770;11.150;2023-04-03T14:24:54;8.30;;;2.15;;
67544;SDS011;54380;47.770;11.150;2023-04-03T14:27:23;9.40;;;1.80;;
67544;SDS011;54380;47.770;11.150;2023-04-03T14:29:52;7.28;;;1.67;;
67544;SDS011;54380;47.770;11.150;2023-04-03T14:32:21;9.50;;;2.72;;
67544;SDS011;54380;47.770;11.150;2023-04-03T14:34:50;7.95;;;2.08;;
67544;SDS011;54380;47.770;11.150;2023-04-03T14:37:20;6.97;;;1.70;;
67544;SDS011;54380;47.770;11.150;2023-04-03T14:39:49;7.72;;;1.88;;
67544;SDS011;54380;47.770;11.150;2023-04-03T14:42:18;7.95;;;1.42;;
67544;SDS011;54380;47.770;11.150;2023-04-03T14:44:47;8.52;;;1.63;;
67544;SDS011;54380;47.770;11.150;2023-04-03T14:47:15;11.25;;;1.33;;
67544;SDS011;54380;47.770;11.150;2023-04-03T14:49:58;8.25;;;1.33;;
67544;SDS011;54380;47.770;11.150;2023-04-03T14:52:26;8.50;;;2.00;;
67544;SDS011;54380;47.770;11.150;2023-04-03T14:54:55;8.65;;;1.60;;
67544;SDS011;54380;47.770;11.150;2023-04-03T14:57:23;7.70;;;1.80;;
67544;SDS011;54380;47.770;11.150;2023-04-03T14:59:52;7.38;;;1.63;;
67544;SDS011;54380;47.770;11.150;2023-04-03T15:02:24;6.68;;;1.08;;
67544;SDS011;54380;47.770;11.150;2023-04-03T15:04:53;7.35;;;1.60;;
67544;SDS011;54380;47.770;11.150;2023-04-03T15:07:21;8.73;;;1.63;;
67544;SDS011;54380;47.770;11.150;2023-04-03T15:09:50;7.55;;;1.45;;
67544;SDS011;54380;47.770;11.150;2023-04-03T15:12:18;9.07;;;1.80;;
67544;SDS011;54380;47.770;11.150;2023-04-03T15:14:45;7.85;;;1.65;;
67544;SDS011;54380;47.770;11.150;2023-04-03T15:17:22;9.15;;;1.15;;
67544;SDS011;54380;47.770;11.150;2023-04-03T15:19:50;6.60;;;1.45;;
67544;SDS011;54380;47.770;11.150;2023-04-03T15:22:17;8.10;;;1.67;;
67544;SDS011;54380;47.770;11.150;2023-04-03T15:24:46;6.63;;;1.35;;
67544;SDS011;54380;47.770;11.150;2023-04-03T15:27:14;6.38;;;1.50;;
67544;SDS011;54380;47.770;11.150;2023-04-03T15:29:42;7.35;;;1.00;;
67544;SDS011;54380;47.770;11.150;2023-04-03T15:32:10;9.60;;;2.00;;
67544;SDS011;54380;47.770;11.150;2023-04-03T15:34:38;7.20;;;1.38;;
67544;SDS011;54380;47.770;11.150;2023-04-03T15:37:05;7.40;;;1.70;;
67544;SDS011;54380;47.770;11.150;2023-04-03T15:39:32;8.75;;;1.17;;